sensor_id;sensor_type;location;lat;lon;timestamp;temperature;humidity
30097;DHT22;16915;51.466;3.610;2022-12-05T00:01:25;2.50;99.90
30097;DHT22;16915;51.466;3.610;2022-12-05T00:03:52;2.50;99.90
30097;DHT22;16915;51.466;3.610;2022-12-05T00:06:18;2.60;99.90
30097;DHT22;16915;51.466;3.610;2022-12-05T00:08:44;2.60;99.90
30097;DHT22;16915;51.466;3.610;2022-12-05T00:11:13;2.60;99.90
30097;DHT22;16915;51.466;3.610;2022-12-05T00:13:42;2.60;99.90
30097;DHT22;16915;51.466;3.610;2022-12-05T00:16:09;2.60;99.90
30097;DHT22;16915;51.466;3.610;2022-12-05T00:18:34;2.60;99.90
30097;DHT22;16915;51.466;3.610;2022-12-05T00:21:00;2.60;99.90
30097;DHT22;16915;51.466;3.610;2022-12-05T00:23:25;2.60;99.90
30097;DHT22;16915;51.466;3.610;2022-12-05T00:25:51;2.70;99.90
30097;DHT22;16915;51.466;3.610;2022-12-05T00:28:16;2.60;99.90
30097;DHT22;16915;51.466;3.610;2022-12-05T00:30:42;2.70;99.90
30097;DHT22;16915;51.466;3.610;2022-12-05T00:33:07;2.70;99.90
30097;DHT22;16915;51.466;3.610;2022-12-05T00:35:33;2.70;99.90
30097;DHT22;16915;51.466;3.610;2022-12-05T00:37:58;2.70;99.90
30097;DHT22;16915;51.466;3.610;2022-12-05T00:40:24;2.70;99.90
30097;DHT22;16915;51.466;3.610;2022-12-05T00:42:49;2.70;99.90
30097;DHT22;16915;51.466;3.610;2022-12-05T00:45:15;2.70;99.90
30097;DHT22;16915;51.466;3.610;2022-12-05T00:47:40;2.70;99.90
30097;DHT22;16915;51.466;3.610;2022-12-05T00:50:06;2.80;99.90
30097;DHT22;16915;51.466;3.610;2022-12-05T00:52:32;2.70;99.90
30097;DHT22;16915;51.466;3.610;2022-12-05T00:54:57;2.80;99.90
30097;DHT22;16915;51.466;3.610;2022-12-05T00:57:23;2.70;99.90
30097;DHT22;16915;51.466;3.610;2022-12-05T00:59:48;2.70;99.90
30097;DHT22;16915;51.466;3.610;2022-12-05T01:02:14;2.70;99.90
30097;DHT22;16915;51.466;3.610;2022-12-05T01:04:39;2.70;99.90
30097;DHT22;16915;51.466;3.610;2022-12-05T01:07:05;2.70;99.90
30097;DHT22;16915;51.466;3.610;2022-12-05T01:09:30;2.70;99.90
30097;DHT22;16915;51.466;3.610;2022-12-05T01:11:56;2.80;99.90
30097;DHT22;16915;51.466;3.610;2022-12-05T01:14:22;2.70;99.90
30097;DHT22;16915;51.466;3.610;2022-12-05T01:16:49;2.70;99.90
30097;DHT22;16915;51.466;3.610;2022-12-05T01:19:21;2.70;99.90
30097;DHT22;16915;51.466;3.610;2022-12-05T01:21:47;2.70;99.90
30097;DHT22;16915;51.466;3.610;2022-12-05T01:24:13;2.80;99.90
30097;DHT22;16915;51.466;3.610;2022-12-05T01:26:39;2.80;99.90
30097;DHT22;16915;51.466;3.610;2022-12-05T01:29:05;2.80;99.90
30097;DHT22;16915;51.466;3.610;2022-12-05T01:31:32;2.80;99.90
30097;DHT22;16915;51.466;3.610;2022-12-05T01:33:58;2.80;99.90
30097;DHT22;16915;51.466;3.610;2022-12-05T01:36:25;2.80;99.90
30097;DHT22;16915;51.466;3.610;2022-12-05T01:38:51;2.80;99.90
30097;DHT22;16915;51.466;3.610;2022-12-05T01:41:21;2.80;99.90
30097;DHT22;16915;51.466;3.610;2022-12-05T01:46:42;2.80;99.90
30097;DHT22;16915;51.466;3.610;2022-12-05T01:49:09;2.80;99.90
30097;DHT22;16915;51.466;3.610;2022-12-05T01:51:36;2.80;99.90
30097;DHT22;16915;51.466;3.610;2022-12-05T01:54:02;2.80;99.90
30097;DHT22;16915;51.466;3.610;2022-12-05T01:56:29;2.80;99.90
30097;DHT22;16915;51.466;3.610;2022-12-05T01:58:58;2.80;99.90
30097;DHT22;16915;51.466;3.610;2022-12-05T02:01:24;2.80;99.90
30097;DHT22;16915;51.466;3.610;2022-12-05T02:03:50;2.80;99.90
30097;DHT22;16915;51.466;3.610;2022-12-05T02:06:17;2.90;99.90
30097;DHT22;16915;51.466;3.610;2022-12-05T02:08:42;2.80;99.90
30097;DHT22;16915;51.466;3.610;2022-12-05T02:11:08;2.90;99.90
30097;DHT22;16915;51.466;3.610;2022-12-05T02:14:08;2.90;99.90
30097;DHT22;16915;51.466;3.610;2022-12-05T02:32:11;2.90;99.90
30097;DHT22;16915;51.466;3.610;2022-12-05T02:37:08;2.90;99.90
30097;DHT22;16915;51.466;3.610;2022-12-05T02:39:58;2.90;99.90
30097;DHT22;16915;51.466;3.610;2022-12-05T02:45:00;3.00;99.90
30097;DHT22;16915;51.466;3.610;2022-12-05T02:47:28;3.10;99.90
30097;DHT22;16915;51.466;3.610;2022-12-05T02:49:54;3.00;99.90
30097;DHT22;16915;51.466;3.610;2022-12-05T02:52:21;3.00;99.90
30097;DHT22;16915;51.466;3.610;2022-12-05T02:54:47;3.10;99.90
30097;DHT22;16915;51.466;3.610;2022-12-05T02:57:13;3.10;99.90
30097;DHT22;16915;51.466;3.610;2022-12-05T02:59:39;3.00;99.90
30097;DHT22;16915;51.466;3.610;2022-12-05T03:02:06;3.00;99.90
30097;DHT22;16915;51.466;3.610;2022-12-05T03:04:32;3.10;99.90
30097;DHT22;16915;51.466;3.610;2022-12-05T03:07:05;3.10;99.90
30097;DHT22;16915;51.466;3.610;2022-12-05T03:12:30;3.10;99.90
30097;DHT22;16915;51.466;3.610;2022-12-05T03:15:08;3.20;99.90
30097;DHT22;16915;51.466;3.610;2022-12-05T03:17:36;3.20;99.90
30097;DHT22;16915;51.466;3.610;2022-12-05T03:24:54;3.10;99.90
30097;DHT22;16915;51.466;3.610;2022-12-05T03:27:31;3.20;99.90
30097;DHT22;16915;51.466;3.610;2022-12-05T03:30:09;3.20;99.90
30097;DHT22;16915;51.466;3.610;2022-12-05T03:32:36;3.20;99.90
30097;DHT22;16915;51.466;3.610;2022-12-05T03:35:05;3.20;99.90
30097;DHT22;16915;51.466;3.610;2022-12-05T03:37:38;3.20;99.90
30097;DHT22;16915;51.466;3.610;2022-12-05T03:40:14;3.20;99.90
30097;DHT22;16915;51.466;3.610;2022-12-05T03:42:47;3.20;99.90
30097;DHT22;16915;51.466;3.610;2022-12-05T03:45:15;3.20;99.90
30097;DHT22;16915;51.466;3.610;2022-12-05T03:50:24;3.20;99.90
30097;DHT22;16915;51.466;3.610;2022-12-05T03:52:54;3.20;99.90
30097;DHT22;16915;51.466;3.610;2022-12-05T03:55:22;3.20;99.90
30097;DHT22;16915;51.466;3.610;2022-12-05T03:57:52;3.20;99.90
30097;DHT22;16915;51.466;3.610;2022-12-05T04:00:20;3.20;99.90
30097;DHT22;16915;51.466;3.610;2022-12-05T04:05:31;3.30;99.90
30097;DHT22;16915;51.466;3.610;2022-12-05T04:08:00;3.30;99.90
30097;DHT22;16915;51.466;3.610;2022-12-05T04:10:28;3.30;99.90
30097;DHT22;16915;51.466;3.610;2022-12-05T04:12:55;3.30;99.90
30097;DHT22;16915;51.466;3.610;2022-12-05T04:15:23;3.30;99.90
30097;DHT22;16915;51.466;3.610;2022-12-05T04:20:16;3.30;99.90
30097;DHT22;16915;51.466;3.610;2022-12-05T04:23:01;3.30;99.90
30097;DHT22;16915;51.466;3.610;2022-12-05T04:25:29;3.30;99.90
30097;DHT22;16915;51.466;3.610;2022-12-05T04:30:25;3.30;99.90
30097;DHT22;16915;51.466;3.610;2022-12-05T04:32:59;3.30;99.90
30097;DHT22;16915;51.466;3.610;2022-12-05T04:40:48;3.40;99.90
30097;DHT22;16915;51.466;3.610;2022-12-05T04:43:17;3.40;99.90
30097;DHT22;16915;51.466;3.610;2022-12-05T04:45:43;3.40;99.90
30097;DHT22;16915;51.466;3.610;2022-12-05T04:48:11;3.40;99.90
30097;DHT22;16915;51.466;3.610;2022-12-05T04:50:38;3.40;99.90
30097;DHT22;16915;51.466;3.610;2022-12-05T04:53:04;3.50;99.90
30097;DHT22;16915;51.466;3.610;2022-12-05T04:55:31;3.50;99.90
30097;DHT22;16915;51.466;3.610;2022-12-05T04:58:02;3.50;99.90
30097;DHT22;16915;51.466;3.610;2022-12-05T05:00:30;3.50;99.90
30097;DHT22;16915;51.466;3.610;2022-12-05T05:03:10;3.50;99.90
30097;DHT22;16915;51.466;3.610;2022-12-05T05:05:37;3.50;99.90
30097;DHT22;16915;51.466;3.610;2022-12-05T05:08:04;3.50;99.90
30097;DHT22;16915;51.466;3.610;2022-12-05T05:10:41;3.50;99.90
30097;DHT22;16915;51.466;3.610;2022-12-05T05:13:09;3.60;99.90
30097;DHT22;16915;51.466;3.610;2022-12-05T05:15:35;3.50;99.90
30097;DHT22;16915;51.466;3.610;2022-12-05T05:18:00;3.60;99.90
30097;DHT22;16915;51.466;3.610;2022-12-05T05:20:25;3.60;99.90
30097;DHT22;16915;51.466;3.610;2022-12-05T05:22:52;3.60;99.90
30097;DHT22;16915;51.466;3.610;2022-12-05T05:25:18;3.60;99.90
30097;DHT22;16915;51.466;3.610;2022-12-05T05:27:50;3.60;99.90
30097;DHT22;16915;51.466;3.610;2022-12-05T05:30:17;3.60;99.90
30097;DHT22;16915;51.466;3.610;2022-12-05T05:32:43;3.60;99.90
30097;DHT22;16915;51.466;3.610;2022-12-05T05:35:08;3.70;99.90
30097;DHT22;16915;51.466;3.610;2022-12-05T05:37:34;3.70;99.90
30097;DHT22;16915;51.466;3.610;2022-12-05T05:39:59;3.70;99.90
30097;DHT22;16915;51.466;3.610;2022-12-05T05:42:25;3.70;99.90
30097;DHT22;16915;51.466;3.610;2022-12-05T05:44:50;3.70;99.90
30097;DHT22;16915;51.466;3.610;2022-12-05T05:47:16;3.70;99.90
30097;DHT22;16915;51.466;3.610;2022-12-05T05:49:41;3.70;99.90
30097;DHT22;16915;51.466;3.610;2022-12-05T05:52:07;3.70;99.90
30097;DHT22;16915;51.466;3.610;2022-12-05T05:54:32;3.70;99.90
30097;DHT22;16915;51.466;3.610;2022-12-05T05:56:57;3.70;99.90
30097;DHT22;16915;51.466;3.610;2022-12-05T05:59:23;3.70;99.90
30097;DHT22;16915;51.466;3.610;2022-12-05T06:01:48;3.70;99.90
30097;DHT22;16915;51.466;3.610;2022-12-05T06:04:14;3.70;99.90
30097;DHT22;16915;51.466;3.610;2022-12-05T06:06:39;3.80;99.90
30097;DHT22;16915;51.466;3.610;2022-12-05T06:09:05;3.70;99.90
30097;DHT22;16915;51.466;3.610;2022-12-05T06:11:31;3.70;99.90
30097;DHT22;16915;51.466;3.610;2022-12-05T06:13:57;3.80;99.90
30097;DHT22;16915;51.466;3.610;2022-12-05T06:16:25;3.70;99.90
30097;DHT22;16915;51.466;3.610;2022-12-05T06:18:51;3.70;99.90
30097;DHT22;16915;51.466;3.610;2022-12-05T06:21:16;3.70;99.90
30097;DHT22;16915;51.466;3.610;2022-12-05T06:23:42;3.70;99.90
30097;DHT22;16915;51.466;3.610;2022-12-05T06:26:11;3.70;99.90
30097;DHT22;16915;51.466;3.610;2022-12-05T06:28:37;3.80;99.90
30097;DHT22;16915;51.466;3.610;2022-12-05T06:31:07;3.80;99.90
30097;DHT22;16915;51.466;3.610;2022-12-05T06:33:33;3.80;99.90
30097;DHT22;16915;51.466;3.610;2022-12-05T06:36:06;3.80;99.90
30097;DHT22;16915;51.466;3.610;2022-12-05T06:38:32;3.80;99.90
30097;DHT22;16915;51.466;3.610;2022-12-05T06:40:57;3.80;99.90
30097;DHT22;16915;51.466;3.610;2022-12-05T06:43:23;3.80;99.90
30097;DHT22;16915;51.466;3.610;2022-12-05T06:45:48;3.90;99.90
30097;DHT22;16915;51.466;3.610;2022-12-05T06:48:14;3.90;99.90
30097;DHT22;16915;51.466;3.610;2022-12-05T06:50:39;3.90;99.90
30097;DHT22;16915;51.466;3.610;2022-12-05T06:53:04;3.90;99.90
30097;DHT22;16915;51.466;3.610;2022-12-05T06:55:30;3.90;99.90
30097;DHT22;16915;51.466;3.610;2022-12-05T06:57:56;3.90;99.90
30097;DHT22;16915;51.466;3.610;2022-12-05T07:00:21;3.90;99.90
30097;DHT22;16915;51.466;3.610;2022-12-05T07:03:05;3.90;99.90
30097;DHT22;16915;51.466;3.610;2022-12-05T07:05:32;4.00;99.90
30097;DHT22;16915;51.466;3.610;2022-12-05T07:07:57;3.90;99.90
30097;DHT22;16915;51.466;3.610;2022-12-05T07:10:23;4.00;99.90
30097;DHT22;16915;51.466;3.610;2022-12-05T07:12:48;4.00;99.90
30097;DHT22;16915;51.466;3.610;2022-12-05T07:15:14;4.00;99.90
30097;DHT22;16915;51.466;3.610;2022-12-05T07:17:39;4.00;99.90
30097;DHT22;16915;51.466;3.610;2022-12-05T07:20:05;4.00;99.90
30097;DHT22;16915;51.466;3.610;2022-12-05T07:22:33;4.00;99.90
30097;DHT22;16915;51.466;3.610;2022-12-05T07:24:59;4.10;99.90
30097;DHT22;16915;51.466;3.610;2022-12-05T07:27:25;4.10;99.90
30097;DHT22;16915;51.466;3.610;2022-12-05T07:29:50;4.10;99.90
30097;DHT22;16915;51.466;3.610;2022-12-05T07:32:16;4.10;99.90
30097;DHT22;16915;51.466;3.610;2022-12-05T07:34:41;4.10;99.90
30097;DHT22;16915;51.466;3.610;2022-12-05T07:37:07;4.10;99.90
30097;DHT22;16915;51.466;3.610;2022-12-05T07:39:33;4.10;99.90
30097;DHT22;16915;51.466;3.610;2022-12-05T07:41:58;4.20;99.90
30097;DHT22;16915;51.466;3.610;2022-12-05T07:44:23;4.20;99.90
30097;DHT22;16915;51.466;3.610;2022-12-05T07:46:49;4.20;99.90
30097;DHT22;16915;51.466;3.610;2022-12-05T07:49:14;4.20;99.90
30097;DHT22;16915;51.466;3.610;2022-12-05T07:51:40;4.20;99.90
30097;DHT22;16915;51.466;3.610;2022-12-05T07:54:06;4.20;99.90
30097;DHT22;16915;51.466;3.610;2022-12-05T07:56:31;4.20;99.90
30097;DHT22;16915;51.466;3.610;2022-12-05T07:58:57;4.30;99.90
30097;DHT22;16915;51.466;3.610;2022-12-05T08:01:23;4.30;99.90
30097;DHT22;16915;51.466;3.610;2022-12-05T08:03:50;4.30;99.90
30097;DHT22;16915;51.466;3.610;2022-12-05T08:06:17;4.30;99.90
30097;DHT22;16915;51.466;3.610;2022-12-05T08:08:43;4.30;99.90
30097;DHT22;16915;51.466;3.610;2022-12-05T08:11:13;4.40;99.90
30097;DHT22;16915;51.466;3.610;2022-12-05T08:13:38;4.40;99.90
30097;DHT22;16915;51.466;3.610;2022-12-05T08:16:05;4.40;99.90
30097;DHT22;16915;51.466;3.610;2022-12-05T08:18:31;4.40;99.90
30097;DHT22;16915;51.466;3.610;2022-12-05T08:21:04;4.40;99.90
30097;DHT22;16915;51.466;3.610;2022-12-05T08:23:31;4.40;99.90
30097;DHT22;16915;51.466;3.610;2022-12-05T08:26:00;4.50;99.90
30097;DHT22;16915;51.466;3.610;2022-12-05T08:28:26;4.50;99.90
30097;DHT22;16915;51.466;3.610;2022-12-05T08:30:51;4.50;99.90
30097;DHT22;16915;51.466;3.610;2022-12-05T08:33:17;4.60;99.90
30097;DHT22;16915;51.466;3.610;2022-12-05T08:35:42;4.60;99.90
30097;DHT22;16915;51.466;3.610;2022-12-05T08:38:08;4.60;99.90
30097;DHT22;16915;51.466;3.610;2022-12-05T08:40:33;4.60;99.90
30097;DHT22;16915;51.466;3.610;2022-12-05T08:42:58;4.60;99.90
30097;DHT22;16915;51.466;3.610;2022-12-05T08:45:24;4.60;99.90
30097;DHT22;16915;51.466;3.610;2022-12-05T08:47:49;4.70;99.90
30097;DHT22;16915;51.466;3.610;2022-12-05T08:50:15;4.70;99.90
30097;DHT22;16915;51.466;3.610;2022-12-05T08:52:40;4.70;99.90
30097;DHT22;16915;51.466;3.610;2022-12-05T08:55:06;4.70;99.90
30097;DHT22;16915;51.466;3.610;2022-12-05T08:57:32;4.70;99.90
30097;DHT22;16915;51.466;3.610;2022-12-05T08:59:57;4.70;99.90
30097;DHT22;16915;51.466;3.610;2022-12-05T09:02:22;4.70;99.90
30097;DHT22;16915;51.466;3.610;2022-12-05T09:04:49;4.80;99.90
30097;DHT22;16915;51.466;3.610;2022-12-05T09:07:15;4.80;99.90
30097;DHT22;16915;51.466;3.610;2022-12-05T09:09:40;4.80;99.90
30097;DHT22;16915;51.466;3.610;2022-12-05T09:12:05;4.70;99.90
30097;DHT22;16915;51.466;3.610;2022-12-05T09:14:31;4.80;99.90
30097;DHT22;16915;51.466;3.610;2022-12-05T09:16:57;4.70;99.90
30097;DHT22;16915;51.466;3.610;2022-12-05T09:19:23;4.80;99.90
30097;DHT22;16915;51.466;3.610;2022-12-05T09:21:50;4.80;99.90
30097;DHT22;16915;51.466;3.610;2022-12-05T09:24:15;4.80;99.90
30097;DHT22;16915;51.466;3.610;2022-12-05T09:26:42;4.80;99.90
30097;DHT22;16915;51.466;3.610;2022-12-05T09:29:08;4.90;99.90
30097;DHT22;16915;51.466;3.610;2022-12-05T09:31:34;4.90;99.90
30097;DHT22;16915;51.466;3.610;2022-12-05T09:34:00;4.80;99.90
30097;DHT22;16915;51.466;3.610;2022-12-05T09:36:27;4.80;99.90
30097;DHT22;16915;51.466;3.610;2022-12-05T09:38:53;4.80;99.90
30097;DHT22;16915;51.466;3.610;2022-12-05T09:47:01;4.90;99.90
30097;DHT22;16915;51.466;3.610;2022-12-05T09:49:27;4.90;99.90
30097;DHT22;16915;51.466;3.610;2022-12-05T09:51:53;5.00;99.90
30097;DHT22;16915;51.466;3.610;2022-12-05T09:54:22;5.00;99.90
30097;DHT22;16915;51.466;3.610;2022-12-05T09:56:48;5.00;99.90
30097;DHT22;16915;51.466;3.610;2022-12-05T09:59:14;5.00;99.90
30097;DHT22;16915;51.466;3.610;2022-12-05T10:06:57;5.10;99.90
30097;DHT22;16915;51.466;3.610;2022-12-05T10:09:29;5.20;99.90
30097;DHT22;16915;51.466;3.610;2022-12-05T10:17:17;5.40;99.90
30097;DHT22;16915;51.466;3.610;2022-12-05T10:19:45;5.40;99.90
30097;DHT22;16915;51.466;3.610;2022-12-05T10:22:16;5.50;99.90
30097;DHT22;16915;51.466;3.610;2022-12-05T10:24:46;5.50;99.90
30097;DHT22;16915;51.466;3.610;2022-12-05T10:27:14;5.50;99.90
30097;DHT22;16915;51.466;3.610;2022-12-05T10:29:43;5.60;99.90
30097;DHT22;16915;51.466;3.610;2022-12-05T10:32:14;5.60;99.90
30097;DHT22;16915;51.466;3.610;2022-12-05T10:34:42;5.60;99.90
30097;DHT22;16915;51.466;3.610;2022-12-05T10:39:36;5.60;99.90
30097;DHT22;16915;51.466;3.610;2022-12-05T10:42:02;5.60;99.90
30097;DHT22;16915;51.466;3.610;2022-12-05T10:44:28;5.60;99.90
30097;DHT22;16915;51.466;3.610;2022-12-05T10:46:53;5.60;99.90
30097;DHT22;16915;51.466;3.610;2022-12-05T10:49:19;5.60;99.90
30097;DHT22;16915;51.466;3.610;2022-12-05T10:51:45;5.70;99.90
30097;DHT22;16915;51.466;3.610;2022-12-05T10:54:22;5.80;99.90
30097;DHT22;16915;51.466;3.610;2022-12-05T10:56:49;5.80;99.90
30097;DHT22;16915;51.466;3.610;2022-12-05T10:59:16;5.80;99.90
30097;DHT22;16915;51.466;3.610;2022-12-05T11:01:52;5.80;99.90
30097;DHT22;16915;51.466;3.610;2022-12-05T11:04:23;5.80;99.90
30097;DHT22;16915;51.466;3.610;2022-12-05T11:06:53;5.80;99.90
30097;DHT22;16915;51.466;3.610;2022-12-05T11:09:21;5.80;99.90
30097;DHT22;16915;51.466;3.610;2022-12-05T11:11:57;5.80;99.90
30097;DHT22;16915;51.466;3.610;2022-12-05T11:14:24;5.80;99.90
30097;DHT22;16915;51.466;3.610;2022-12-05T11:16:54;5.80;99.90
30097;DHT22;16915;51.466;3.610;2022-12-05T11:21:46;5.80;99.90
30097;DHT22;16915;51.466;3.610;2022-12-05T11:24:19;5.70;99.90
30097;DHT22;16915;51.466;3.610;2022-12-05T11:26:45;5.80;99.90
30097;DHT22;16915;51.466;3.610;2022-12-05T11:31:55;5.80;99.90
30097;DHT22;16915;51.466;3.610;2022-12-05T11:34:22;5.90;99.90
30097;DHT22;16915;51.466;3.610;2022-12-05T11:36:59;5.90;99.90
30097;DHT22;16915;51.466;3.610;2022-12-05T11:39:26;5.90;99.90
30097;DHT22;16915;51.466;3.610;2022-12-05T12:02:19;5.90;99.90
30097;DHT22;16915;51.466;3.610;2022-12-05T12:12:51;5.90;99.90
30097;DHT22;16915;51.466;3.610;2022-12-05T12:15:23;5.90;99.90
30097;DHT22;16915;51.466;3.610;2022-12-05T12:22:54;6.00;99.90
30097;DHT22;16915;51.466;3.610;2022-12-05T12:30:30;6.00;99.90
30097;DHT22;16915;51.466;3.610;2022-12-05T12:40:52;6.10;99.90
30097;DHT22;16915;51.466;3.610;2022-12-05T12:43:57;6.00;99.90
30097;DHT22;16915;51.466;3.610;2022-12-05T12:48:57;6.00;99.90
30097;DHT22;16915;51.466;3.610;2022-12-05T12:51:23;6.00;99.90
30097;DHT22;16915;51.466;3.610;2022-12-05T13:01:30;6.00;99.90
30097;DHT22;16915;51.466;3.610;2022-12-05T13:06:46;6.10;99.90
30097;DHT22;16915;51.466;3.610;2022-12-05T13:09:14;6.00;99.90
30097;DHT22;16915;51.466;3.610;2022-12-05T13:11:41;6.10;99.90
30097;DHT22;16915;51.466;3.610;2022-12-05T13:14:09;6.10;99.90
30097;DHT22;16915;51.466;3.610;2022-12-05T13:16:36;6.10;99.90
30097;DHT22;16915;51.466;3.610;2022-12-05T13:19:04;6.10;99.90
30097;DHT22;16915;51.466;3.610;2022-12-05T13:21:30;6.20;99.90
30097;DHT22;16915;51.466;3.610;2022-12-05T13:23:56;6.10;99.90
30097;DHT22;16915;51.466;3.610;2022-12-05T13:26:28;6.20;99.90
30097;DHT22;16915;51.466;3.610;2022-12-05T13:28:58;6.30;99.90
30097;DHT22;16915;51.466;3.610;2022-12-05T13:31:37;6.30;99.90
30097;DHT22;16915;51.466;3.610;2022-12-05T13:34:04;6.30;99.90
30097;DHT22;16915;51.466;3.610;2022-12-05T13:36:37;6.30;99.90
30097;DHT22;16915;51.466;3.610;2022-12-05T13:39:22;6.30;99.90
30097;DHT22;16915;51.466;3.610;2022-12-05T13:42:18;6.30;99.90
30097;DHT22;16915;51.466;3.610;2022-12-05T13:50:12;6.30;99.90
30097;DHT22;16915;51.466;3.610;2022-12-05T13:52:49;6.40;99.90
30097;DHT22;16915;51.466;3.610;2022-12-05T13:55:29;6.40;99.90
30097;DHT22;16915;51.466;3.610;2022-12-05T13:57:57;6.30;99.90
30097;DHT22;16915;51.466;3.610;2022-12-05T14:05:47;6.40;99.90
30097;DHT22;16915;51.466;3.610;2022-12-05T14:15:52;6.30;99.90
30097;DHT22;16915;51.466;3.610;2022-12-05T14:18:27;6.30;99.90
30097;DHT22;16915;51.466;3.610;2022-12-05T14:21:00;6.30;99.90
30097;DHT22;16915;51.466;3.610;2022-12-05T14:31:44;6.30;99.90
30097;DHT22;16915;51.466;3.610;2022-12-05T14:34:16;6.30;99.90
30097;DHT22;16915;51.466;3.610;2022-12-05T14:36:58;6.30;99.90
30097;DHT22;16915;51.466;3.610;2022-12-05T14:39:44;6.30;99.90
30097;DHT22;16915;51.466;3.610;2022-12-05T14:44:55;6.30;99.90
30097;DHT22;16915;51.466;3.610;2022-12-05T14:47:28;6.30;99.90
30097;DHT22;16915;51.466;3.610;2022-12-05T14:49:55;6.30;99.90
30097;DHT22;16915;51.466;3.610;2022-12-05T14:52:24;6.30;99.90
30097;DHT22;16915;51.466;3.610;2022-12-05T14:54:50;6.30;99.90
30097;DHT22;16915;51.466;3.610;2022-12-05T14:57:17;6.30;99.90
30097;DHT22;16915;51.466;3.610;2022-12-05T14:59:50;6.30;99.90
30097;DHT22;16915;51.466;3.610;2022-12-05T15:02:20;6.30;99.90
30097;DHT22;16915;51.466;3.610;2022-12-05T15:04:51;6.30;99.90
30097;DHT22;16915;51.466;3.610;2022-12-05T15:07:38;6.20;99.90
30097;DHT22;16915;51.466;3.610;2022-12-05T15:12:35;6.20;99.90
30097;DHT22;16915;51.466;3.610;2022-12-05T15:17:44;6.10;99.90
30097;DHT22;16915;51.466;3.610;2022-12-05T15:20:16;6.10;99.90
30097;DHT22;16915;51.466;3.610;2022-12-05T15:22:42;6.00;99.90
30097;DHT22;16915;51.466;3.610;2022-12-05T15:25:19;5.90;99.90
30097;DHT22;16915;51.466;3.610;2022-12-05T15:27:55;5.90;99.90
30097;DHT22;16915;51.466;3.610;2022-12-05T15:30:22;5.90;99.90
30097;DHT22;16915;51.466;3.610;2022-12-05T15:32:48;5.90;99.90
30097;DHT22;16915;51.466;3.610;2022-12-05T15:35:13;5.90;99.90
30097;DHT22;16915;51.466;3.610;2022-12-05T15:40:09;5.90;99.90
30097;DHT22;16915;51.466;3.610;2022-12-05T15:42:45;5.80;99.90
30097;DHT22;16915;51.466;3.610;2022-12-05T15:47:40;5.90;99.90
30097;DHT22;16915;51.466;3.610;2022-12-05T15:50:30;5.80;99.90
30097;DHT22;16915;51.466;3.610;2022-12-05T15:52:56;5.80;99.90
30097;DHT22;16915;51.466;3.610;2022-12-05T15:55:32;5.80;99.90
30097;DHT22;16915;51.466;3.610;2022-12-05T15:58:04;5.80;99.90
30097;DHT22;16915;51.466;3.610;2022-12-05T16:00:32;5.70;99.90
30097;DHT22;16915;51.466;3.610;2022-12-05T16:03:11;5.80;99.90
30097;DHT22;16915;51.466;3.610;2022-12-05T16:05:40;5.70;99.90
30097;DHT22;16915;51.466;3.610;2022-12-05T16:08:12;5.70;99.90
30097;DHT22;16915;51.466;3.610;2022-12-05T16:10:38;5.70;99.90
30097;DHT22;16915;51.466;3.610;2022-12-05T16:13:10;5.70;99.90
30097;DHT22;16915;51.466;3.610;2022-12-05T16:15:38;5.70;99.90
30097;DHT22;16915;51.466;3.610;2022-12-05T16:18:18;5.70;99.90
30097;DHT22;16915;51.466;3.610;2022-12-05T16:20:46;5.70;99.90
30097;DHT22;16915;51.466;3.610;2022-12-05T16:23:27;5.70;99.90
30097;DHT22;16915;51.466;3.610;2022-12-05T16:28:38;5.70;99.90
30097;DHT22;16915;51.466;3.610;2022-12-05T16:31:03;5.70;99.90
30097;DHT22;16915;51.466;3.610;2022-12-05T16:33:29;5.70;99.90
30097;DHT22;16915;51.466;3.610;2022-12-05T16:35:55;5.70;99.90
30097;DHT22;16915;51.466;3.610;2022-12-05T16:38:30;5.80;99.90
30097;DHT22;16915;51.466;3.610;2022-12-05T16:45:58;5.70;99.90
30097;DHT22;16915;51.466;3.610;2022-12-05T16:48:25;5.70;99.90
30097;DHT22;16915;51.466;3.610;2022-12-05T16:50:52;5.70;99.90
30097;DHT22;16915;51.466;3.610;2022-12-05T16:53:26;5.70;99.90
30097;DHT22;16915;51.466;3.610;2022-12-05T16:55:52;5.80;99.90
30097;DHT22;16915;51.466;3.610;2022-12-05T16:58:25;5.70;99.90
30097;DHT22;16915;51.466;3.610;2022-12-05T17:00:51;5.70;99.90
30097;DHT22;16915;51.466;3.610;2022-12-05T17:03:17;5.70;99.90
30097;DHT22;16915;51.466;3.610;2022-12-05T17:05:42;5.70;99.90
30097;DHT22;16915;51.466;3.610;2022-12-05T17:08:08;5.70;99.90
30097;DHT22;16915;51.466;3.610;2022-12-05T17:10:33;5.80;99.90
30097;DHT22;16915;51.466;3.610;2022-12-05T17:12:59;5.80;99.90
30097;DHT22;16915;51.466;3.610;2022-12-05T17:15:27;5.80;99.90
30097;DHT22;16915;51.466;3.610;2022-12-05T17:17:52;5.70;99.90
30097;DHT22;16915;51.466;3.610;2022-12-05T17:20:18;5.70;99.90
30097;DHT22;16915;51.466;3.610;2022-12-05T17:22:44;5.70;99.90
30097;DHT22;16915;51.466;3.610;2022-12-05T17:25:17;5.70;99.90
30097;DHT22;16915;51.466;3.610;2022-12-05T17:27:44;5.70;99.90
30097;DHT22;16915;51.466;3.610;2022-12-05T17:30:10;5.70;99.90
30097;DHT22;16915;51.466;3.610;2022-12-05T17:32:35;5.80;99.90
30097;DHT22;16915;51.466;3.610;2022-12-05T17:35:01;5.80;99.90
30097;DHT22;16915;51.466;3.610;2022-12-05T17:37:26;5.80;99.90
30097;DHT22;16915;51.466;3.610;2022-12-05T17:39:52;5.80;99.90
30097;DHT22;16915;51.466;3.610;2022-12-05T17:42:17;5.70;99.90
30097;DHT22;16915;51.466;3.610;2022-12-05T17:44:43;5.70;99.90
30097;DHT22;16915;51.466;3.610;2022-12-05T17:47:08;5.70;99.90
30097;DHT22;16915;51.466;3.610;2022-12-05T17:49:34;5.80;99.90
30097;DHT22;16915;51.466;3.610;2022-12-05T17:51:59;5.70;99.90
30097;DHT22;16915;51.466;3.610;2022-12-05T17:54:28;5.70;99.90
30097;DHT22;16915;51.466;3.610;2022-12-05T17:56:54;5.60;99.90
30097;DHT22;16915;51.466;3.610;2022-12-05T17:59:19;5.60;99.90
30097;DHT22;16915;51.466;3.610;2022-12-05T18:01:45;5.60;99.90
30097;DHT22;16915;51.466;3.610;2022-12-05T18:04:10;5.60;99.90
30097;DHT22;16915;51.466;3.610;2022-12-05T18:06:35;5.60;99.90
30097;DHT22;16915;51.466;3.610;2022-12-05T18:09:03;5.60;99.90
30097;DHT22;16915;51.466;3.610;2022-12-05T18:11:29;5.70;99.90
30097;DHT22;16915;51.466;3.610;2022-12-05T18:13:54;5.70;99.90
30097;DHT22;16915;51.466;3.610;2022-12-05T18:16:20;5.70;99.90
30097;DHT22;16915;51.466;3.610;2022-12-05T18:18:46;5.70;99.90
30097;DHT22;16915;51.466;3.610;2022-12-05T18:21:12;5.70;99.90
30097;DHT22;16915;51.466;3.610;2022-12-05T18:23:38;5.70;99.90
30097;DHT22;16915;51.466;3.610;2022-12-05T18:26:04;5.80;99.90
30097;DHT22;16915;51.466;3.610;2022-12-05T18:28:32;5.80;99.90
30097;DHT22;16915;51.466;3.610;2022-12-05T18:31:04;5.70;99.90
30097;DHT22;16915;51.466;3.610;2022-12-05T18:33:30;5.80;99.90
30097;DHT22;16915;51.466;3.610;2022-12-05T18:35:56;5.80;99.90
30097;DHT22;16915;51.466;3.610;2022-12-05T18:38:22;5.80;99.90
30097;DHT22;16915;51.466;3.610;2022-12-05T18:40:47;5.80;99.90
30097;DHT22;16915;51.466;3.610;2022-12-05T18:43:13;5.80;99.90
30097;DHT22;16915;51.466;3.610;2022-12-05T18:45:38;5.80;99.90
30097;DHT22;16915;51.466;3.610;2022-12-05T18:48:04;5.80;99.90